Flight Track Log - Related Links

Times and Time Zones

All times are in EDT time to prevent confusion due to time zone crossing. See the JAS794 flight status page for this flight to view local times or setup timezone preferences in your user account.

Time Position Orientation Groundspeed Altitude Reporting Facility
EDT Latitude Longitude Course Direction KTS MPH feet Rate Location/Type
Wed 02:28:54 PM 40.8333 -74.1000 270° West 165 190 1,500  Level New York TRACON
Wed 02:29:48 PM 40.8333 -74.1500 270° West 186 214 2,400 1,700 Climbing New York TRACON
Wed 02:30:54 PM 40.8500 -74.2333 285° West 237 273 4,900 2,981 Climbing New York TRACON
Wed 02:32:27 PM 40.9381 -74.3036 329° Northwest 279 321 10,300 3,255 Climbing New York Center
Wed 02:33:27 PM 41.0269 -74.3192 352° North 290 334 13,200 2,705 Climbing New York Center
Wed 02:34:29 PM 41.1189 -74.3131 North 323 372 15,800 1,400 Climbing New York Center
Wed 02:35:27 PM 41.1700 -74.4122 304° West 298 343 16,000 915 Climbing New York Center
Wed 02:36:27 PM 41.2122 -74.5303 295° West 319 367 17,600 1,623 Climbing New York Center
Wed 02:37:29 PM 41.2481 -74.6397 294° West 355 409 19,300 1,736 Climbing New York Center
Wed 02:38:28 PM 41.2872 -74.7772 291° West 374 430 21,100 1,916 Climbing New York Center
Wed 02:39:28 PM 41.3278 -74.9289 290° West 395 455 23,100 1,916 Climbing New York Center
Wed 02:40:27 PM 41.3647 -75.0667 290° West 395 455 24,900 1,462 Climbing New York Center
Wed 02:41:27 PM 41.4031 -75.2075 290° West 400 460 26,000 545 Climbing New York Center
Wed 02:42:28 PM 41.4433 -75.3567 290° West 413 475 26,000  Level New York Center
Wed 02:43:28 PM 41.4814 -75.5006 289° West 418 481 26,000  Level New York Center
Wed 02:44:29 PM 41.5233 -75.6447 291° West 418 481 26,000  Level New York Center
Wed 02:45:29 PM 41.5636 -75.7836 291° West 408 470 26,000 610 Level New York Center
Wed 02:46:27 PM 41.6014 -75.9225 290° West 408 470 27,200 1,400 Climbing New York Center
Wed 02:47:29 PM 41.6411 -76.0614 291° West 402 463 28,800 1,550 Climbing New York Center
Wed 02:48:27 PM 41.6806 -76.2006 291° West 402 463 30,300 1,220 Climbing New York Center
Wed 02:49:27 PM 41.7217 -76.3458 291° West 407 468 31,200 942 Climbing New York Center
Wed 02:50:28 PM 41.7644 -76.4967 291° West 419 482 32,200 934 Climbing New York Center
Wed 02:51:29 PM 41.7978 -76.6275 289° West 419 482 33,100 992 Climbing New York Center
Wed 02:52:29 PM 41.8400 -76.7817 290° West 424 488 34,200 1,228 Climbing New York Center
Wed 02:53:36 PM 41.8964 -76.9508 294° West 425 489 35,700 1,606 Climbing Cleveland Center
Wed 02:54:36 PM 41.9872 -77.0547 320° Northwest 418 481 37,600 1,613 Climbing Cleveland Center
Wed 02:55:35 PM 42.0817 -77.1447 325° Northwest 413 475 38,900 1,150 Climbing Cleveland Center
Wed 02:56:36 PM 42.1761 -77.2375 324° Northwest 413 475 39,900 843 Climbing Cleveland Center
Wed 02:57:36 PM 42.2583 -77.3428 317° Northwest 413 475 40,600 700 Climbing Cleveland Center
Wed 02:58:36 PM 42.2894 -77.4869 286° West 392 451 41,300 700 Climbing Cleveland Center
Wed 02:59:36 PM 42.2556 -77.6292 252° West 370 426 42,000 700 Climbing Cleveland Center
Wed 03:00:36 PM 42.2089 -77.7658 245° Southwest 375 432 42,700 500 Climbing Cleveland Center
Wed 03:01:36 PM 42.1853 -77.9069 257° West 381 438 43,000 151 Climbing Cleveland Center
Wed 03:02:35 PM 42.2075 -78.0575 281° West 390 449 43,000  Level Cleveland Center
Wed 03:03:36 PM 42.2464 -78.2186 288° West 401 461 43,000  Level Cleveland Center
Wed 03:04:36 PM 42.2828 -78.3717 288° West 413 475 43,000  Level Cleveland Center
Wed 03:05:35 PM 42.3167 -78.5192 287° West 418 481 43,000  Level Cleveland Center
Wed 03:06:35 PM 42.3525 -78.6669 288° West 413 475 43,000  Level Cleveland Center
Wed 03:07:35 PM 42.3861 -78.8122 287° West 413 475 43,000  Level Cleveland Center
Wed 03:08:35 PM 42.4172 -78.9436 288° West 404 465 43,000  Level Cleveland Center
Wed 03:09:36 PM 42.4506 -79.0889 287° West 404 465 43,000  Level Cleveland Center
Wed 03:10:35 PM 42.4858 -79.2514 286° West 404 465 43,000  Level Cleveland Center
Wed 03:11:36 PM 42.4981 -79.4006 276° West 404 465 43,000  Level Cleveland Center
Wed 03:12:36 PM 42.5181 -79.5494 280° West 409 471 43,000  Level Cleveland Center
Wed 03:13:35 PM 42.5339 -79.6986 278° West 409 471 43,000  Level Cleveland Center
Wed 03:14:36 PM 42.5558 -79.8475 281° West 409 471 43,000  Level Cleveland Center
Wed 03:15:36 PM 42.5733 -79.9994 279° West 409 471 43,000  Level Cleveland Center
Wed 03:16:35 PM 42.5906 -80.1461 279° West 401 461 43,000  Level Cleveland Center
Wed 03:17:36 PM 42.6078 -80.2983 279° West 406 467 43,000  Level Cleveland Center
Wed 03:18:36 PM 42.6247 -80.4422 279° West 406 467 43,000  Level Cleveland Center
Wed 03:19:36 PM 42.6436 -80.5944 280° West 411 473 43,000  Level Cleveland Center
Wed 03:20:36 PM 42.6622 -80.7442 280° West 406 467 43,000  Level Cleveland Center
Wed 03:21:36 PM 42.6786 -80.8911 279° West 406 467 43,000  Level Cleveland Center
Wed 03:22:35 PM 42.6947 -81.0408 278° West 406 467 43,000  Level Cleveland Center
Wed 03:23:35 PM 42.7089 -81.1764 278° West 406 467 43,000  Level Cleveland Center
Wed 03:24:35 PM 42.7244 -81.3236 278° West 406 467 43,000  Level Cleveland Center
Wed 03:25:35 PM 42.7422 -81.4622 280° West 395 455 43,000  Level Cleveland Center
Wed 03:26:35 PM 42.7597 -81.6294 278° West 397 457 43,000  Level Cleveland Center
Wed 03:27:35 PM 42.7731 -81.7483 279° West 390 449 43,000 50 Level Cleveland Center
Wed 03:28:35 PM 42.7864 -81.8872 277° West 385 443 43,100 -50 Climbing Cleveland Center
Wed 03:29:36 PM 42.7992 -82.0264 277° West 385 443 42,900 -50 Descending Cleveland Center
Wed 03:30:35 PM 42.8139 -82.1681 278° West 380 437 43,000 50 Climbing Cleveland Center
Wed 03:31:35 PM 42.8286 -82.3044 278° West 375 432 43,000  Level Cleveland Center
Wed 03:32:36 PM 42.8433 -82.4436 278° West 375 432 43,000  Level Cleveland Center
Wed 03:33:35 PM 42.8597 -82.5856 279° West 375 432 43,000  Level Cleveland Center
Wed 03:34:35 PM 42.8733 -82.7447 277° West 375 432 43,000  Level Cleveland Center
Wed 03:35:35 PM 42.8872 -82.8869 278° West 375 432 43,000  Level Cleveland Center
Wed 03:36:35 PM 42.9011 -83.0264 278° West 380 437 43,000  Level Cleveland Center
Wed 03:37:35 PM 42.9147 -83.1631 278° West 380 437 43,000  Level Cleveland Center
Wed 03:38:36 PM 42.9261 -83.3053 276° West 380 437 43,000  Level Cleveland Center
Wed 03:39:35 PM 42.9394 -83.4447 277° West 380 437 43,000  Level Cleveland Center
Wed 03:40:35 PM 42.9525 -83.5900 277° West 380 437 43,000  Level Cleveland Center
Wed 03:41:36 PM 42.9631 -83.7353 276° West 375 432 43,000  Level Cleveland Center
Wed 03:42:35 PM 42.9406 -83.8703 257° West 375 432 43,000  Level Cleveland Center
Wed 03:43:35 PM 42.9158 -84.0053 256° West 375 432 43,000  Level Cleveland Center
Wed 03:45:03 PM 42.8756 -84.1961 254° West 371 427 43,000  Level Chicago Center
Wed 03:46:05 PM 42.8464 -84.3344 254° West 376 433 43,000  Level Chicago Center
Wed 03:47:07 PM 42.8172 -84.4753 254° West 384 442 43,000  Level Chicago Center
Wed 03:48:09 PM 42.7883 -84.6125 254° West 380 437 43,000  Level Chicago Center
Wed 03:49:12 PM 42.7597 -84.7514 254° West 381 438 43,000  Level Chicago Center
Wed 03:50:14 PM 42.7303 -84.8900 254° West 382 440 43,000  Level Chicago Center
Wed 03:51:16 PM 42.6950 -85.0567 254° West 382 440 43,000  Level Chicago Center
Wed 03:52:18 PM 42.6650 -85.1953 254° West 382 440 43,000  Level Chicago Center
Wed 03:53:20 PM 42.6347 -85.3356 254° West 387 445 43,000  Level Chicago Center
Wed 03:54:22 PM 42.6039 -85.4742 253° West 385 443 43,000  Level Chicago Center
Wed 03:55:24 PM 42.5739 -85.6147 254° West 386 444 43,000  Level Chicago Center
Wed 03:56:26 PM 42.5436 -85.7544 254° West 387 445 43,000  Level Chicago Center
Wed 03:57:28 PM 42.5125 -85.8933 253° West 384 442 43,000  Level Chicago Center
Wed 03:58:30 PM 42.4750 -86.0622 253° West 390 449 43,000  Level Chicago Center
Wed 03:59:33 PM 42.4528 -86.2047 258° West 384 442 43,000  Level Chicago Center
Wed 04:00:35 PM 42.4353 -86.3481 261° West 386 444 43,000  Level Chicago Center
Wed 04:01:37 PM 42.4161 -86.4931 260° West 389 448 43,000  Level Chicago Center
Wed 04:02:39 PM 42.3978 -86.6369 260° West 389 448 43,000  Level Chicago Center
Wed 04:03:41 PM 42.3794 -86.8000 261° West 391 450 43,000  Level Chicago Center
Wed 04:04:43 PM 42.3617 -86.9436 261° West 391 450 43,000  Level Chicago Center
Wed 04:05:45 PM 42.3403 -87.0839 258° West 388 447 43,000  Level Chicago Center
Wed 04:06:47 PM 42.3208 -87.2278 260° West 392 451 43,000  Level Chicago Center
Wed 04:07:49 PM 42.2983 -87.4011 260° West 395 455 43,000  Level Chicago Center
Wed 04:08:51 PM 42.2781 -87.5458 259° West 397 457 43,000  Level Chicago Center
Wed 04:09:54 PM 42.2583 -87.6897 260° West 396 456 43,000  Level Chicago Center
Wed 04:10:56 PM 42.2381 -87.8328 259° West 393 452 43,000  Level Chicago Center
Wed 04:11:58 PM 42.2267 -88.0075 265° West 398 458 43,000  Level Chicago Center
Wed 04:13:00 PM 42.2369 -88.1522 276° West 397 457 43,000  Level Chicago Center
Wed 04:14:02 PM 42.2489 -88.2969 276° West 394 453 43,000  Level Chicago Center
Wed 04:15:04 PM 42.2581 -88.4411 275° West 391 450 43,000  Level Chicago Center
Wed 04:16:06 PM 42.2694 -88.5844 276° West 389 448 43,000  Level Chicago Center
Wed 04:17:08 PM 42.2819 -88.7567 276° West 389 448 43,000  Level Chicago Center
Wed 04:18:10 PM 42.2922 -88.9083 275° West 391 450 43,000  Level Chicago Center
Wed 04:19:12 PM 42.3017 -89.0547 275° West 393 452 43,000  Level Chicago Center
Wed 04:20:14 PM 42.3122 -89.2003 276° West 390 449 43,000  Level Chicago Center
Wed 04:21:16 PM 42.3219 -89.3478 275° West 393 452 43,000  Level Chicago Center
Wed 04:22:19 PM 42.3314 -89.4939 275° West 390 449 43,000  Level Chicago Center
Wed 04:23:21 PM 42.3417 -89.6658 275° West 392 451 43,000  Level Chicago Center
Wed 04:24:23 PM 42.3517 -89.8144 275° West 394 453 43,000  Level Chicago Center
Wed 04:25:25 PM 42.3597 -89.9553 274° West 394 453 43,000  Level Chicago Center
Wed 04:26:27 PM 42.3681 -90.1022 274° West 394 453 43,000  Level Chicago Center
Wed 04:27:29 PM 42.3767 -90.2486 275° West 393 452 43,000  Level Chicago Center
Wed 04:28:31 PM 42.3867 -90.4258 274° West 396 456 43,000  Level Chicago Center
Wed 04:29:33 PM 42.3936 -90.5731 274° West 397 457 43,000  Level Chicago Center
Wed 04:30:35 PM 42.4033 -90.7214 275° West 400 460 43,000 48 Level Chicago Center
Wed 04:31:37 PM 42.4142 -90.8703 276° West 400 460 43,100  Climbing Chicago Center
Wed 04:32:40 PM 42.4253 -91.0186 276° West 399 459 43,000 -48 Descending Chicago Center
Wed 04:33:42 PM 42.4381 -91.1981 276° West 399 459 43,000  Level Chicago Center
Wed 04:34:44 PM 42.4467 -91.3469 275° West 399 459 43,000  Level Chicago Center
Wed 04:35:46 PM 42.4567 -91.4986 275° West 403 464 43,000  Level Chicago Center
Wed 04:36:48 PM 42.4669 -91.6506 275° West 404 465 43,000  Level Chicago Center
Wed 04:37:50 PM 42.4769 -91.8033 275° West 405 466 43,000  Level Chicago Center
Wed 04:38:52 PM 42.4881 -91.9556 276° West 407 468 43,000  Level Chicago Center
Wed 04:39:54 PM 42.4969 -92.1089 275° West 407 468 43,000  Level Chicago Center
Wed 04:40:56 PM 42.5078 -92.2914 275° West 407 468 43,000  Level Chicago Center
Wed 04:41:58 PM 42.5172 -92.4436 275° West 407 468 43,000  Level Chicago Center
Wed 04:43:12 PM 42.5278 -92.6283 274° West 409 471 43,000  Level Minneapolis Center
Wed 04:44:14 PM 42.5367 -92.7811 275° West 409 471 43,000  Level Minneapolis Center
Wed 04:45:17 PM 42.5444 -92.9350 274° West 411 473 43,000  Level Minneapolis Center
Wed 04:46:06 PM 42.5539 -93.0883 275° West 413 475 43,000  Level Chicago Center
Wed 04:47:08 PM 42.5622 -93.2411 274° West 411 473 43,000  Level Chicago Center
Wed 04:48:23 PM 42.5708 -93.4264 274° West 413 475 43,000  Level Minneapolis Center
Wed 04:49:25 PM 42.5800 -93.5794 275° West 410 472 43,000  Level Minneapolis Center
Wed 04:50:27 PM 42.5886 -93.7656 274° West 414 476 43,000  Level Minneapolis Center
Wed 04:51:29 PM 42.5964 -93.9203 274° West 414 476 43,000  Level Minneapolis Center
Wed 04:52:31 PM 42.6033 -94.0758 274° West 416 479 43,000  Level Minneapolis Center
Wed 04:53:33 PM 42.6083 -94.2306 273° West 416 479 43,000  Level Minneapolis Center
Wed 04:54:35 PM 42.6108 -94.3864 271° West 416 479 43,000  Level Minneapolis Center
Wed 04:55:37 PM 42.6083 -94.5733 269° West 417 480 43,000  Level Minneapolis Center
Wed 04:56:52 PM 42.6056 -94.7586 269° West 410 472 43,000  Level Minneapolis Center
Wed 04:57:54 PM 42.6028 -94.9153 269° West 417 480 43,000  Level Minneapolis Center
Wed 04:58:56 PM 42.6003 -95.0744 269° West 424 488 43,000  Level Minneapolis Center
Wed 04:59:59 PM 42.5975 -95.2308 269° West 419 482 43,000  Level Minneapolis Center
Wed 05:01:01 PM 42.5919 -95.4189 268° West 417 480 43,000  Level Minneapolis Center
Wed 05:02:03 PM 42.5889 -95.5747 269° West 416 479 43,000  Level Minneapolis Center
Wed 05:03:05 PM 42.5850 -95.7317 268° West 418 481 43,000  Level Minneapolis Center
Wed 05:04:07 PM 42.5808 -95.8861 268° West 413 475 43,000  Level Minneapolis Center
Wed 05:05:09 PM 42.5761 -96.0433 268° West 417 480 43,000  Level Minneapolis Center
Wed 05:06:11 PM 42.5717 -96.1983 268° West 414 476 43,000  Level Minneapolis Center
Wed 05:07:13 PM 42.5656 -96.3858 268° West 415 478 43,000  Level Minneapolis Center
Wed 05:08:15 PM 42.5617 -96.5417 268° West 415 478 43,000  Level Minneapolis Center
Wed 05:09:17 PM 42.5558 -96.7003 267° West 421 484 43,000  Level Minneapolis Center
Wed 05:10:19 PM 42.5503 -96.8572 267° West 420 483 43,000  Level Minneapolis Center
Wed 05:11:21 PM 42.5450 -97.0131 267° West 417 480 43,000  Level Minneapolis Center
Wed 05:12:24 PM 42.5378 -97.1978 267° West 412 474 43,000  Level Minneapolis Center
Wed 05:13:26 PM 42.5319 -97.3544 267° West 416 479 43,000  Level Minneapolis Center
Wed 05:14:28 PM 42.5261 -97.5106 267° West 417 480 43,000  Level Minneapolis Center
Wed 05:15:30 PM 42.5186 -97.6667 266° West 417 480 43,000  Level Minneapolis Center
Wed 05:16:32 PM 42.5131 -97.8239 267° West 419 482 43,000  Level Minneapolis Center
Wed 05:17:34 PM 42.5050 -97.9867 266° West 419 482 43,000  Level Minneapolis Center
Wed 05:18:36 PM 42.4981 -98.1433 267° West 418 481 43,000  Level Minneapolis Center
Wed 05:19:38 PM 42.4894 -98.3308 266° West 418 481 43,000  Level Minneapolis Center
Wed 05:20:40 PM 42.4817 -98.4867 266° West 416 479 43,000  Level Minneapolis Center
Wed 05:21:42 PM 42.4664 -98.6425 262° West 419 482 43,000  Level Minneapolis Center
Wed 05:22:44 PM 42.4067 -98.7819 240° Southwest 434 499 43,000  Level Minneapolis Center
Wed 05:23:46 PM 42.3242 -98.9064 228° Southwest 443 510 43,000  Level Minneapolis Center
Wed 05:24:49 PM 42.2414 -99.0292 228° Southwest 444 511 43,000  Level Minneapolis Center
Wed 05:25:51 PM 42.1419 -99.1781 228° Southwest 446 513 43,000  Level Minneapolis Center
Wed 05:26:53 PM 42.0575 -99.3011 227° Southwest 449 517 43,000  Level Minneapolis Center
Wed 05:27:55 PM 41.9742 -99.4231 227° Southwest 447 514 43,000  Level Minneapolis Center
Wed 05:28:57 PM 41.8917 -99.5458 228° Southwest 445 512 43,000  Level Minneapolis Center
Wed 05:29:59 PM 41.8067 -99.6686 227° Southwest 448 516 43,000  Level Minneapolis Center
Wed 05:31:01 PM 41.7058 -99.8156 227° Southwest 448 516 43,000  Level Minneapolis Center
Wed 05:32:03 PM 41.6219 -99.9364 227° Southwest 447 514 43,000  Level Minneapolis Center
Wed 05:33:05 PM 41.5372 -100.0561 227° Southwest 445 512 43,000  Level Minneapolis Center
Wed 05:34:07 PM 41.4542 -100.1772 228° Southwest 444 511 43,000  Level Minneapolis Center
Wed 05:35:09 PM 41.3711 -100.2942 227° Southwest 441 507 43,000  Level Minneapolis Center
Wed 05:36:11 PM 41.2886 -100.4117 227° Southwest 438 504 43,000  Level Minneapolis Center
Wed 05:37:14 PM 41.1883 -100.5539 227° Southwest 439 505 43,000  Level Minneapolis Center
Wed 05:38:31 PM 41.1153 -100.7144 239° Southwest 425 489 43,000  Level Denver Center
Wed 05:39:33 PM 41.0806 -100.8808 255° West 424 488 43,000  Level Denver Center
Wed 05:40:35 PM 41.0731 -101.0228 266° West 417 480 43,000  Level Denver Center
Wed 05:41:37 PM 41.1208 -101.1753 293° West 406 467 43,000  Level Denver Center
Wed 05:42:39 PM 41.1642 -101.3008 295° West 395 455 43,000 -145 Level Denver Center
Wed 05:43:41 PM 41.2139 -101.4475 294° West 391 450 42,700 -774 Descending Denver Center
Wed 05:44:43 PM 41.2539 -101.5786 292° West 399 459 41,400 -1,403 Descending Denver Center
Wed 05:45:45 PM 41.3033 -101.7272 294° West 395 455 39,800 -1,452 Descending Denver Center
Wed 05:46:47 PM 41.3431 -101.8542 293° West 390 449 38,400 -1,210 Descending Denver Center
Wed 05:47:49 PM 41.3422 -102.0189 270° West 400 460 37,300 -1,113 Descending Denver Center
Wed 05:48:51 PM 41.3444 -102.1592 271° West 399 459 36,100 -1,306 Descending Denver Center
Wed 05:49:53 PM 41.3469 -102.3239 271° West 400 460 34,600 -1,403 Descending Denver Center
Wed 05:50:55 PM 41.3528 -102.4678 273° West 405 466 33,200 -1,258 Descending Denver Center
Wed 05:51:57 PM 41.3547 -102.6167 271° West 402 463 32,000 -581 Descending Denver Center
Wed 05:52:59 PM 41.3042 -102.7794 248° West 427 491 32,000  Level Denver Center
Wed 05:54:01 PM 41.2236 -102.8883 225° Southwest 432 497 32,000  Level Denver Center
Wed 05:55:03 PM 41.1272 -103.0133 224° Southwest 433 498 32,000  Level Denver Center
Wed 05:56:05 PM 41.0425 -103.1231 224° Southwest 439 505 32,000 -387 Level Denver Center
Wed 05:57:07 PM 40.9572 -103.2333 224° Southwest 445 512 31,200 -1,500 Descending Denver Center
Wed 05:58:09 PM 40.8617 -103.3575 225° Southwest 435 501 28,900 -2,160 Descending Denver Center
Wed 05:59:12 PM 40.7850 -103.4564 224° Southwest 411 473 26,700 -2,208 Descending Denver Center
Wed 06:00:14 PM 40.6961 -103.5697 224° Southwest 401 461 24,300 -2,177 Descending Denver Center
Wed 06:01:16 PM 40.6214 -103.6653 224° Southwest 393 452 22,200 -2,226 Descending Denver Center
Wed 06:02:18 PM 40.5375 -103.7731 224° Southwest 379 436 19,700 -2,177 Descending Denver Center
Wed 06:03:20 PM 40.4703 -103.8586 224° Southwest 359 413 17,700 -1,790 Descending Denver Center
Wed 06:04:22 PM 40.3958 -103.9556 225° Southwest 346 398 16,000 -823 Descending Denver Center
Wed 06:05:24 PM 40.3242 -104.0419 223° Southwest 328 377 16,000  Level Denver Center
Wed 06:06:26 PM 40.2525 -104.1186 219° Southwest 332 382 16,000  Level Denver Center
Wed 06:07:28 PM 40.1811 -104.1939 219° Southwest 330 380 16,000 -488 Level Denver Center
Wed 06:08:29 PM 40.1061 -104.2758 220° Southwest 327 376 15,000 -1,306 Descending Denver Center
Wed 06:09:32 PM 40.0356 -104.3508 219° Southwest 328 377 13,300 -968 Descending Denver Center
Wed 06:10:33 PM 39.9614 -104.4311 220° Southwest 321 369 13,000 -146 Descending Denver Center
Wed 06:11:35 PM 39.9022 -104.4922 218° Southwest 274 315 13,000  Level Denver Center
Wed 06:12:37 PM 39.8344 -104.5344 206° Southwest 277 319 13,000 -194 Level Denver Center
Wed 06:13:39 PM 39.7564 -104.5625 195° South 270 311 12,600 -1,306 Descending Denver Center
Wed 06:14:41 PM 39.7267 -104.6492 246° West 269 310 10,300 -2,177 Descending Denver Center
Wed 06:15:43 PM 39.7103 -104.7425 257° West 264 304 8,100 -1,113 Descending Denver Center
Wed 06:16:45 PM 39.6928 -104.8331 256° West 243 280 8,000 -532 Descending Denver Center
Wed 06:17:47 PM 39.6469 -104.8556 201° Southwest 181 208 7,000 -871 Descending Denver Center
Wed 06:18:49 PM 39.6069 -104.8525 177° South 138 159 6,200 -581 Descending Denver Center
Wed 06:19:51 PM 39.5778 -104.8517 179° South 127 146 5,800 -387 Descending Denver Center
Wed 06:21:00 PM 39.5701 -104.8493 218° Southwest  Level Estimated
Wed 06:28:00 PM 39.5701 -104.8493 218° Southwest  Level Estimated

Login

Don't have an account? Register now (free) for customized features, flight alerts, and more!